sensor_id;sensor_type;location;lat;lon;timestamp;P1;durP1;ratioP1;P2;durP2;ratioP2
16524;SDS011;8375;33.594;-117.718;2024-03-08T00:00:32;5.97;;;1.90;;
16524;SDS011;8375;33.594;-117.718;2024-03-08T00:03:01;5.53;;;1.67;;
16524;SDS011;8375;33.594;-117.718;2024-03-08T00:05:32;5.80;;;1.60;;
16524;SDS011;8375;33.594;-117.718;2024-03-08T00:08:01;6.37;;;1.63;;
16524;SDS011;8375;33.594;-117.718;2024-03-08T00:10:30;7.27;;;1.83;;
16524;SDS011;8375;33.594;-117.718;2024-03-08T00:12:58;8.77;;;1.53;;
16524;SDS011;8375;33.594;-117.718;2024-03-08T00:15:31;6.90;;;1.70;;
16524;SDS011;8375;33.594;-117.718;2024-03-08T00:18:00;6.50;;;1.80;;
16524;SDS011;8375;33.594;-117.718;2024-03-08T00:20:29;9.93;;;1.80;;
16524;SDS011;8375;33.594;-117.718;2024-03-08T00:22:57;9.00;;;1.50;;
16524;SDS011;8375;33.594;-117.718;2024-03-08T00:25:26;7.27;;;1.47;;
16524;SDS011;8375;33.594;-117.718;2024-03-08T00:27:54;6.53;;;1.67;;
16524;SDS011;8375;33.594;-117.718;2024-03-08T00:30:23;7.67;;;1.70;;
16524;SDS011;8375;33.594;-117.718;2024-03-08T00:32:53;6.90;;;1.67;;
16524;SDS011;8375;33.594;-117.718;2024-03-08T00:35:22;5.17;;;1.50;;
16524;SDS011;8375;33.594;-117.718;2024-03-08T00:37:50;5.40;;;1.37;;
16524;SDS011;8375;33.594;-117.718;2024-03-08T00:40:22;8.10;;;1.80;;
16524;SDS011;8375;33.594;-117.718;2024-03-08T00:42:50;6.97;;;1.93;;
16524;SDS011;8375;33.594;-117.718;2024-03-08T00:45:20;6.47;;;1.80;;
16524;SDS011;8375;33.594;-117.718;2024-03-08T00:47:54;9.20;;;2.60;;
16524;SDS011;8375;33.594;-117.718;2024-03-08T00:50:22;6.73;;;1.77;;
16524;SDS011;8375;33.594;-117.718;2024-03-08T00:52:51;3.43;;;1.40;;
16524;SDS011;8375;33.594;-117.718;2024-03-08T00:55:20;5.47;;;1.67;;
16524;SDS011;8375;33.594;-117.718;2024-03-08T00:57:48;6.77;;;1.63;;
16524;SDS011;8375;33.594;-117.718;2024-03-08T01:00:19;6.90;;;1.60;;
16524;SDS011;8375;33.594;-117.718;2024-03-08T01:02:48;7.57;;;1.83;;
16524;SDS011;8375;33.594;-117.718;2024-03-08T01:05:18;6.57;;;1.60;;
16524;SDS011;8375;33.594;-117.718;2024-03-08T01:07:47;6.57;;;1.70;;
16524;SDS011;8375;33.594;-117.718;2024-03-08T01:10:15;8.17;;;2.27;;
16524;SDS011;8375;33.594;-117.718;2024-03-08T01:12:44;6.83;;;1.90;;
16524;SDS011;8375;33.594;-117.718;2024-03-08T01:15:13;4.13;;;1.30;;
16524;SDS011;8375;33.594;-117.718;2024-03-08T01:17:41;6.67;;;1.77;;
16524;SDS011;8375;33.594;-117.718;2024-03-08T01:20:10;6.10;;;1.83;;
16524;SDS011;8375;33.594;-117.718;2024-03-08T01:22:41;8.17;;;1.67;;
16524;SDS011;8375;33.594;-117.718;2024-03-08T01:25:09;11.17;;;1.80;;
16524;SDS011;8375;33.594;-117.718;2024-03-08T01:27:38;10.27;;;1.50;;
16524;SDS011;8375;33.594;-117.718;2024-03-08T01:30:07;6.43;;;1.80;;
16524;SDS011;8375;33.594;-117.718;2024-03-08T01:32:36;7.63;;;1.60;;
16524;SDS011;8375;33.594;-117.718;2024-03-08T01:35:05;9.47;;;1.90;;
16524;SDS011;8375;33.594;-117.718;2024-03-08T01:37:36;8.20;;;1.50;;
16524;SDS011;8375;33.594;-117.718;2024-03-08T01:40:07;6.93;;;1.77;;
16524;SDS011;8375;33.594;-117.718;2024-03-08T01:42:36;9.37;;;2.50;;
16524;SDS011;8375;33.594;-117.718;2024-03-08T01:45:05;5.63;;;1.60;;
16524;SDS011;8375;33.594;-117.718;2024-03-08T01:47:34;7.13;;;1.33;;
16524;SDS011;8375;33.594;-117.718;2024-03-08T01:50:03;4.80;;;1.73;;
16524;SDS011;8375;33.594;-117.718;2024-03-08T01:52:33;5.63;;;2.27;;
16524;SDS011;8375;33.594;-117.718;2024-03-08T01:55:03;5.53;;;1.50;;
16524;SDS011;8375;33.594;-117.718;2024-03-08T01:57:35;8.10;;;1.70;;
16524;SDS011;8375;33.594;-117.718;2024-03-08T02:00:04;6.40;;;2.17;;
16524;SDS011;8375;33.594;-117.718;2024-03-08T02:02:35;5.50;;;1.50;;
16524;SDS011;8375;33.594;-117.718;2024-03-08T02:05:10;7.67;;;1.90;;
16524;SDS011;8375;33.594;-117.718;2024-03-08T02:07:40;7.07;;;1.97;;
16524;SDS011;8375;33.594;-117.718;2024-03-08T02:10:11;9.53;;;2.00;;
16524;SDS011;8375;33.594;-117.718;2024-03-08T02:12:40;6.27;;;2.20;;
16524;SDS011;8375;33.594;-117.718;2024-03-08T02:15:09;8.47;;;1.90;;
16524;SDS011;8375;33.594;-117.718;2024-03-08T02:17:38;5.90;;;1.73;;
16524;SDS011;8375;33.594;-117.718;2024-03-08T02:20:07;5.47;;;1.80;;
16524;SDS011;8375;33.594;-117.718;2024-03-08T02:22:40;6.83;;;1.77;;
16524;SDS011;8375;33.594;-117.718;2024-03-08T02:25:09;7.07;;;1.87;;
16524;SDS011;8375;33.594;-117.718;2024-03-08T02:27:39;8.67;;;1.77;;
16524;SDS011;8375;33.594;-117.718;2024-03-08T02:30:08;7.07;;;1.83;;
16524;SDS011;8375;33.594;-117.718;2024-03-08T02:32:38;8.53;;;1.57;;
16524;SDS011;8375;33.594;-117.718;2024-03-08T02:35:06;9.37;;;2.23;;
16524;SDS011;8375;33.594;-117.718;2024-03-08T02:37:35;9.37;;;1.60;;
16524;SDS011;8375;33.594;-117.718;2024-03-08T02:40:06;6.73;;;1.93;;
16524;SDS011;8375;33.594;-117.718;2024-03-08T02:42:38;7.10;;;2.00;;
16524;SDS011;8375;33.594;-117.718;2024-03-08T02:45:07;7.63;;;2.17;;
16524;SDS011;8375;33.594;-117.718;2024-03-08T02:47:36;8.73;;;1.90;;
16524;SDS011;8375;33.594;-117.718;2024-03-08T02:50:05;6.47;;;1.67;;
16524;SDS011;8375;33.594;-117.718;2024-03-08T02:52:35;6.97;;;1.70;;
16524;SDS011;8375;33.594;-117.718;2024-03-08T02:55:09;8.83;;;2.03;;
16524;SDS011;8375;33.594;-117.718;2024-03-08T02:57:41;7.77;;;1.70;;
16524;SDS011;8375;33.594;-117.718;2024-03-08T03:00:13;10.23;;;2.43;;
16524;SDS011;8375;33.594;-117.718;2024-03-08T03:02:41;6.70;;;1.80;;
16524;SDS011;8375;33.594;-117.718;2024-03-08T03:05:10;5.80;;;2.40;;
16524;SDS011;8375;33.594;-117.718;2024-03-08T03:07:39;6.10;;;1.80;;
16524;SDS011;8375;33.594;-117.718;2024-03-08T03:10:10;6.83;;;1.87;;
16524;SDS011;8375;33.594;-117.718;2024-03-08T03:12:42;5.90;;;2.20;;
16524;SDS011;8375;33.594;-117.718;2024-03-08T03:15:11;6.97;;;1.67;;
16524;SDS011;8375;33.594;-117.718;2024-03-08T03:17:40;6.83;;;2.00;;
16524;SDS011;8375;33.594;-117.718;2024-03-08T03:20:13;5.33;;;1.80;;
16524;SDS011;8375;33.594;-117.718;2024-03-08T03:22:48;8.63;;;2.30;;
16524;SDS011;8375;33.594;-117.718;2024-03-08T03:25:20;6.00;;;1.63;;
16524;SDS011;8375;33.594;-117.718;2024-03-08T03:27:52;5.37;;;2.20;;
16524;SDS011;8375;33.594;-117.718;2024-03-08T03:30:22;7.33;;;2.13;;
16524;SDS011;8375;33.594;-117.718;2024-03-08T03:32:52;8.33;;;1.83;;
16524;SDS011;8375;33.594;-117.718;2024-03-08T03:35:24;6.67;;;1.73;;
16524;SDS011;8375;33.594;-117.718;2024-03-08T03:37:53;5.30;;;1.80;;
16524;SDS011;8375;33.594;-117.718;2024-03-08T03:40:34;7.10;;;1.83;;
16524;SDS011;8375;33.594;-117.718;2024-03-08T03:43:03;8.37;;;2.10;;
16524;SDS011;8375;33.594;-117.718;2024-03-08T03:45:32;7.60;;;1.83;;
16524;SDS011;8375;33.594;-117.718;2024-03-08T03:48:02;9.97;;;1.93;;
16524;SDS011;8375;33.594;-117.718;2024-03-08T03:50:32;11.10;;;2.77;;
16524;SDS011;8375;33.594;-117.718;2024-03-08T03:53:01;7.17;;;2.00;;
16524;SDS011;8375;33.594;-117.718;2024-03-08T03:55:34;7.83;;;2.40;;
16524;SDS011;8375;33.594;-117.718;2024-03-08T03:58:04;11.40;;;2.00;;
16524;SDS011;8375;33.594;-117.718;2024-03-08T04:00:32;8.33;;;2.23;;
16524;SDS011;8375;33.594;-117.718;2024-03-08T04:03:01;10.50;;;2.70;;
16524;SDS011;8375;33.594;-117.718;2024-03-08T04:05:30;8.80;;;2.13;;
16524;SDS011;8375;33.594;-117.718;2024-03-08T04:07:59;8.67;;;2.23;;
16524;SDS011;8375;33.594;-117.718;2024-03-08T04:10:28;8.30;;;2.60;;
16524;SDS011;8375;33.594;-117.718;2024-03-08T04:12:58;5.70;;;2.20;;
16524;SDS011;8375;33.594;-117.718;2024-03-08T04:15:27;6.00;;;2.67;;
16524;SDS011;8375;33.594;-117.718;2024-03-08T04:17:57;9.37;;;2.40;;
16524;SDS011;8375;33.594;-117.718;2024-03-08T04:20:26;9.63;;;2.37;;
16524;SDS011;8375;33.594;-117.718;2024-03-08T04:22:56;7.80;;;2.20;;
16524;SDS011;8375;33.594;-117.718;2024-03-08T04:25:25;8.17;;;2.40;;
16524;SDS011;8375;33.594;-117.718;2024-03-08T04:27:54;5.67;;;2.50;;
16524;SDS011;8375;33.594;-117.718;2024-03-08T04:30:24;9.00;;;2.50;;
16524;SDS011;8375;33.594;-117.718;2024-03-08T04:32:53;7.87;;;2.00;;
16524;SDS011;8375;33.594;-117.718;2024-03-08T04:35:22;10.87;;;2.27;;
16524;SDS011;8375;33.594;-117.718;2024-03-08T04:37:51;9.07;;;2.40;;
16524;SDS011;8375;33.594;-117.718;2024-03-08T04:40:20;7.97;;;2.30;;
16524;SDS011;8375;33.594;-117.718;2024-03-08T04:42:49;10.43;;;2.37;;
16524;SDS011;8375;33.594;-117.718;2024-03-08T04:45:19;10.33;;;2.73;;
16524;SDS011;8375;33.594;-117.718;2024-03-08T04:47:49;8.10;;;2.10;;
16524;SDS011;8375;33.594;-117.718;2024-03-08T04:50:18;7.00;;;2.20;;
16524;SDS011;8375;33.594;-117.718;2024-03-08T04:52:47;7.73;;;2.20;;
16524;SDS011;8375;33.594;-117.718;2024-03-08T04:55:15;8.93;;;2.07;;
16524;SDS011;8375;33.594;-117.718;2024-03-08T04:57:46;4.40;;;1.77;;
16524;SDS011;8375;33.594;-117.718;2024-03-08T05:00:15;7.73;;;2.00;;
16524;SDS011;8375;33.594;-117.718;2024-03-08T05:02:44;8.60;;;2.40;;
16524;SDS011;8375;33.594;-117.718;2024-03-08T05:05:15;6.53;;;2.30;;
16524;SDS011;8375;33.594;-117.718;2024-03-08T05:07:43;8.00;;;2.00;;
16524;SDS011;8375;33.594;-117.718;2024-03-08T05:10:14;9.13;;;2.67;;
16524;SDS011;8375;33.594;-117.718;2024-03-08T05:12:43;7.03;;;2.10;;
16524;SDS011;8375;33.594;-117.718;2024-03-08T05:15:12;12.23;;;3.27;;
16524;SDS011;8375;33.594;-117.718;2024-03-08T05:17:42;9.97;;;3.60;;
16524;SDS011;8375;33.594;-117.718;2024-03-08T05:20:10;8.60;;;2.60;;
16524;SDS011;8375;33.594;-117.718;2024-03-08T05:22:41;14.20;;;3.53;;
16524;SDS011;8375;33.594;-117.718;2024-03-08T05:25:09;8.63;;;2.80;;
16524;SDS011;8375;33.594;-117.718;2024-03-08T05:27:40;8.07;;;2.80;;
16524;SDS011;8375;33.594;-117.718;2024-03-08T05:30:08;6.60;;;2.33;;
16524;SDS011;8375;33.594;-117.718;2024-03-08T05:32:40;9.43;;;3.03;;
16524;SDS011;8375;33.594;-117.718;2024-03-08T05:35:10;7.70;;;2.87;;
16524;SDS011;8375;33.594;-117.718;2024-03-08T05:37:43;9.37;;;2.27;;
16524;SDS011;8375;33.594;-117.718;2024-03-08T05:40:12;7.47;;;2.20;;
16524;SDS011;8375;33.594;-117.718;2024-03-08T05:42:40;8.97;;;2.50;;
16524;SDS011;8375;33.594;-117.718;2024-03-08T05:45:09;8.93;;;2.27;;
16524;SDS011;8375;33.594;-117.718;2024-03-08T05:47:39;9.33;;;2.33;;
16524;SDS011;8375;33.594;-117.718;2024-03-08T05:50:08;8.17;;;2.63;;
16524;SDS011;8375;33.594;-117.718;2024-03-08T05:52:37;8.03;;;3.00;;
16524;SDS011;8375;33.594;-117.718;2024-03-08T05:55:07;8.77;;;3.07;;
16524;SDS011;8375;33.594;-117.718;2024-03-08T05:57:36;8.17;;;3.30;;
16524;SDS011;8375;33.594;-117.718;2024-03-08T06:00:06;11.60;;;3.03;;
16524;SDS011;8375;33.594;-117.718;2024-03-08T06:02:36;7.57;;;2.90;;
16524;SDS011;8375;33.594;-117.718;2024-03-08T06:05:08;12.07;;;3.23;;
16524;SDS011;8375;33.594;-117.718;2024-03-08T06:07:37;8.10;;;2.60;;
16524;SDS011;8375;33.594;-117.718;2024-03-08T06:10:09;7.90;;;2.23;;
16524;SDS011;8375;33.594;-117.718;2024-03-08T06:12:38;9.77;;;2.63;;
16524;SDS011;8375;33.594;-117.718;2024-03-08T06:15:07;7.63;;;2.60;;
16524;SDS011;8375;33.594;-117.718;2024-03-08T06:17:40;6.70;;;2.40;;
16524;SDS011;8375;33.594;-117.718;2024-03-08T06:20:09;10.37;;;2.63;;
16524;SDS011;8375;33.594;-117.718;2024-03-08T06:22:38;7.57;;;2.23;;
16524;SDS011;8375;33.594;-117.718;2024-03-08T06:25:09;7.90;;;2.07;;
16524;SDS011;8375;33.594;-117.718;2024-03-08T06:27:39;11.73;;;2.70;;
16524;SDS011;8375;33.594;-117.718;2024-03-08T06:30:08;10.30;;;3.30;;
16524;SDS011;8375;33.594;-117.718;2024-03-08T06:32:37;10.13;;;2.27;;
16524;SDS011;8375;33.594;-117.718;2024-03-08T06:35:08;9.27;;;2.30;;
16524;SDS011;8375;33.594;-117.718;2024-03-08T06:37:37;8.47;;;2.73;;
16524;SDS011;8375;33.594;-117.718;2024-03-08T06:40:09;10.10;;;2.47;;
16524;SDS011;8375;33.594;-117.718;2024-03-08T06:42:39;7.27;;;2.40;;
16524;SDS011;8375;33.594;-117.718;2024-03-08T06:45:08;12.63;;;2.80;;
16524;SDS011;8375;33.594;-117.718;2024-03-08T06:47:40;11.63;;;3.20;;
16524;SDS011;8375;33.594;-117.718;2024-03-08T06:50:09;8.80;;;2.40;;
16524;SDS011;8375;33.594;-117.718;2024-03-08T06:52:38;7.77;;;2.20;;
16524;SDS011;8375;33.594;-117.718;2024-03-08T06:55:07;7.10;;;1.87;;
16524;SDS011;8375;33.594;-117.718;2024-03-08T06:57:40;6.43;;;1.80;;
16524;SDS011;8375;33.594;-117.718;2024-03-08T07:00:09;9.93;;;2.47;;
16524;SDS011;8375;33.594;-117.718;2024-03-08T07:02:43;6.97;;;2.03;;
16524;SDS011;8375;33.594;-117.718;2024-03-08T07:05:14;7.17;;;2.13;;
16524;SDS011;8375;33.594;-117.718;2024-03-08T07:07:43;8.13;;;2.30;;
16524;SDS011;8375;33.594;-117.718;2024-03-08T07:10:15;6.67;;;2.30;;
16524;SDS011;8375;33.594;-117.718;2024-03-08T07:12:44;5.77;;;2.37;;
16524;SDS011;8375;33.594;-117.718;2024-03-08T07:15:13;9.13;;;2.03;;
16524;SDS011;8375;33.594;-117.718;2024-03-08T07:17:45;10.97;;;2.70;;
16524;SDS011;8375;33.594;-117.718;2024-03-08T07:20:14;10.10;;;2.30;;
16524;SDS011;8375;33.594;-117.718;2024-03-08T07:22:44;6.10;;;2.23;;
16524;SDS011;8375;33.594;-117.718;2024-03-08T07:25:18;8.70;;;2.17;;
16524;SDS011;8375;33.594;-117.718;2024-03-08T07:27:50;4.97;;;2.43;;
16524;SDS011;8375;33.594;-117.718;2024-03-08T07:30:19;4.37;;;2.40;;
16524;SDS011;8375;33.594;-117.718;2024-03-08T07:33:05;7.17;;;2.10;;
16524;SDS011;8375;33.594;-117.718;2024-03-08T07:35:37;9.67;;;2.40;;
16524;SDS011;8375;33.594;-117.718;2024-03-08T07:38:06;10.60;;;2.37;;
16524;SDS011;8375;33.594;-117.718;2024-03-08T07:40:37;10.23;;;2.13;;
16524;SDS011;8375;33.594;-117.718;2024-03-08T07:43:08;6.97;;;2.10;;
16524;SDS011;8375;33.594;-117.718;2024-03-08T07:45:37;5.07;;;1.90;;
16524;SDS011;8375;33.594;-117.718;2024-03-08T07:48:11;8.50;;;2.70;;
16524;SDS011;8375;33.594;-117.718;2024-03-08T07:50:40;9.87;;;2.57;;
16524;SDS011;8375;33.594;-117.718;2024-03-08T10:02:39;9.37;;;2.63;;
16524;SDS011;8375;33.594;-117.718;2024-03-08T10:05:08;5.33;;;2.40;;
16524;SDS011;8375;33.594;-117.718;2024-03-08T10:07:37;9.40;;;2.90;;
16524;SDS011;8375;33.594;-117.718;2024-03-08T10:10:06;9.47;;;2.73;;
16524;SDS011;8375;33.594;-117.718;2024-03-08T10:12:38;12.33;;;3.10;;
16524;SDS011;8375;33.594;-117.718;2024-03-08T10:15:07;6.33;;;2.93;;
16524;SDS011;8375;33.594;-117.718;2024-03-08T10:17:39;8.47;;;2.53;;
16524;SDS011;8375;33.594;-117.718;2024-03-08T10:20:13;6.97;;;2.80;;
16524;SDS011;8375;33.594;-117.718;2024-03-08T10:22:42;6.43;;;2.43;;
16524;SDS011;8375;33.594;-117.718;2024-03-08T10:25:11;8.93;;;3.03;;
16524;SDS011;8375;33.594;-117.718;2024-03-08T10:27:40;7.37;;;3.07;;
16524;SDS011;8375;33.594;-117.718;2024-03-08T10:30:10;5.47;;;2.57;;
16524;SDS011;8375;33.594;-117.718;2024-03-08T10:32:43;6.53;;;2.70;;
16524;SDS011;8375;33.594;-117.718;2024-03-08T10:35:12;10.63;;;2.73;;
16524;SDS011;8375;33.594;-117.718;2024-03-08T10:37:44;7.87;;;2.70;;
16524;SDS011;8375;33.594;-117.718;2024-03-08T10:40:15;8.83;;;2.77;;
16524;SDS011;8375;33.594;-117.718;2024-03-08T10:42:51;6.53;;;2.90;;
16524;SDS011;8375;33.594;-117.718;2024-03-08T10:45:29;7.90;;;3.33;;
16524;SDS011;8375;33.594;-117.718;2024-03-08T10:48:07;8.80;;;2.60;;
16524;SDS011;8375;33.594;-117.718;2024-03-08T10:50:46;8.73;;;3.27;;
16524;SDS011;8375;33.594;-117.718;2024-03-08T10:53:16;7.17;;;3.00;;
16524;SDS011;8375;33.594;-117.718;2024-03-08T10:55:46;6.67;;;2.97;;
16524;SDS011;8375;33.594;-117.718;2024-03-08T10:58:19;7.37;;;2.93;;
16524;SDS011;8375;33.594;-117.718;2024-03-08T11:00:48;5.87;;;2.47;;
16524;SDS011;8375;33.594;-117.718;2024-03-08T11:06:15;9.27;;;2.87;;
16524;SDS011;8375;33.594;-117.718;2024-03-08T11:08:48;7.80;;;2.63;;
16524;SDS011;8375;33.594;-117.718;2024-03-08T11:11:25;10.07;;;3.00;;
16524;SDS011;8375;33.594;-117.718;2024-03-08T11:13:56;8.13;;;2.70;;
16524;SDS011;8375;33.594;-117.718;2024-03-08T11:16:38;6.43;;;3.07;;
16524;SDS011;8375;33.594;-117.718;2024-03-08T11:19:25;7.30;;;2.90;;
16524;SDS011;8375;33.594;-117.718;2024-03-08T11:21:57;11.13;;;2.90;;
16524;SDS011;8375;33.594;-117.718;2024-03-08T11:24:27;8.57;;;2.83;;
16524;SDS011;8375;33.594;-117.718;2024-03-08T11:26:56;7.13;;;2.30;;
16524;SDS011;8375;33.594;-117.718;2024-03-08T11:29:33;6.10;;;2.50;;
16524;SDS011;8375;33.594;-117.718;2024-03-08T11:32:06;7.97;;;3.43;;
16524;SDS011;8375;33.594;-117.718;2024-03-08T11:34:39;7.90;;;2.60;;
16524;SDS011;8375;33.594;-117.718;2024-03-08T11:37:13;4.97;;;2.60;;
16524;SDS011;8375;33.594;-117.718;2024-03-08T11:39:46;9.13;;;2.77;;
16524;SDS011;8375;33.594;-117.718;2024-03-08T11:42:16;7.53;;;2.50;;
16524;SDS011;8375;33.594;-117.718;2024-03-08T11:44:46;6.90;;;2.63;;
16524;SDS011;8375;33.594;-117.718;2024-03-08T11:47:14;8.90;;;2.70;;
16524;SDS011;8375;33.594;-117.718;2024-03-08T11:49:45;7.97;;;2.57;;
16524;SDS011;8375;33.594;-117.718;2024-03-08T11:52:15;10.17;;;2.77;;
16524;SDS011;8375;33.594;-117.718;2024-03-08T11:54:48;5.13;;;2.60;;
16524;SDS011;8375;33.594;-117.718;2024-03-08T11:57:22;5.97;;;2.27;;
16524;SDS011;8375;33.594;-117.718;2024-03-08T11:59:51;5.70;;;2.53;;
16524;SDS011;8375;33.594;-117.718;2024-03-08T12:02:21;7.80;;;2.60;;
16524;SDS011;8375;33.594;-117.718;2024-03-08T12:04:57;8.47;;;2.63;;
16524;SDS011;8375;33.594;-117.718;2024-03-08T12:07:28;5.83;;;2.50;;
16524;SDS011;8375;33.594;-117.718;2024-03-08T12:10:17;6.53;;;2.40;;
16524;SDS011;8375;33.594;-117.718;2024-03-08T12:12:48;4.53;;;2.17;;
16524;SDS011;8375;33.594;-117.718;2024-03-08T12:15:17;7.30;;;2.07;;
16524;SDS011;8375;33.594;-117.718;2024-03-08T12:17:47;6.47;;;2.20;;
16524;SDS011;8375;33.594;-117.718;2024-03-08T12:20:19;5.50;;;2.10;;
16524;SDS011;8375;33.594;-117.718;2024-03-08T12:22:49;7.10;;;2.10;;
16524;SDS011;8375;33.594;-117.718;2024-03-08T12:25:19;5.97;;;2.13;;
16524;SDS011;8375;33.594;-117.718;2024-03-08T12:27:48;3.20;;;1.60;;
16524;SDS011;8375;33.594;-117.718;2024-03-08T12:30:19;6.60;;;1.90;;
16524;SDS011;8375;33.594;-117.718;2024-03-08T12:32:50;4.43;;;2.07;;
16524;SDS011;8375;33.594;-117.718;2024-03-08T12:35:24;7.10;;;2.43;;
16524;SDS011;8375;33.594;-117.718;2024-03-08T12:37:54;4.37;;;1.80;;
16524;SDS011;8375;33.594;-117.718;2024-03-08T12:40:26;4.23;;;1.80;;
16524;SDS011;8375;33.594;-117.718;2024-03-08T12:42:57;4.27;;;1.70;;
16524;SDS011;8375;33.594;-117.718;2024-03-08T12:45:26;5.67;;;1.93;;
16524;SDS011;8375;33.594;-117.718;2024-03-08T12:47:55;7.63;;;2.40;;
16524;SDS011;8375;33.594;-117.718;2024-03-08T12:50:26;5.27;;;2.07;;
16524;SDS011;8375;33.594;-117.718;2024-03-08T12:52:55;5.97;;;2.13;;
16524;SDS011;8375;33.594;-117.718;2024-03-08T12:55:24;6.70;;;2.10;;
16524;SDS011;8375;33.594;-117.718;2024-03-08T12:57:52;4.57;;;2.20;;
16524;SDS011;8375;33.594;-117.718;2024-03-08T13:00:21;5.37;;;2.20;;
16524;SDS011;8375;33.594;-117.718;2024-03-08T13:02:50;3.23;;;2.20;;
16524;SDS011;8375;33.594;-117.718;2024-03-08T13:05:18;5.20;;;1.70;;
16524;SDS011;8375;33.594;-117.718;2024-03-08T13:07:49;6.73;;;2.23;;
16524;SDS011;8375;33.594;-117.718;2024-03-08T13:10:18;4.70;;;2.20;;
16524;SDS011;8375;33.594;-117.718;2024-03-08T13:12:48;5.27;;;2.10;;
16524;SDS011;8375;33.594;-117.718;2024-03-08T13:15:18;4.13;;;1.80;;
16524;SDS011;8375;33.594;-117.718;2024-03-08T13:17:47;4.33;;;1.80;;
16524;SDS011;8375;33.594;-117.718;2024-03-08T13:20:19;4.13;;;2.17;;
16524;SDS011;8375;33.594;-117.718;2024-03-08T13:22:50;6.60;;;2.10;;
16524;SDS011;8375;33.594;-117.718;2024-03-08T13:25:18;3.27;;;2.07;;
16524;SDS011;8375;33.594;-117.718;2024-03-08T13:27:47;6.20;;;2.00;;
16524;SDS011;8375;33.594;-117.718;2024-03-08T13:30:16;5.13;;;2.33;;
16524;SDS011;8375;33.594;-117.718;2024-03-08T13:32:51;3.87;;;2.20;;
16524;SDS011;8375;33.594;-117.718;2024-03-08T13:35:20;4.67;;;2.00;;
16524;SDS011;8375;33.594;-117.718;2024-03-08T13:37:51;3.83;;;1.90;;
16524;SDS011;8375;33.594;-117.718;2024-03-08T13:40:20;3.93;;;2.33;;
16524;SDS011;8375;33.594;-117.718;2024-03-08T13:42:49;3.87;;;1.87;;
16524;SDS011;8375;33.594;-117.718;2024-03-08T13:45:17;9.33;;;2.10;;
16524;SDS011;8375;33.594;-117.718;2024-03-08T13:47:48;7.23;;;1.90;;
16524;SDS011;8375;33.594;-117.718;2024-03-08T13:50:17;4.00;;;1.60;;
16524;SDS011;8375;33.594;-117.718;2024-03-08T13:52:47;5.17;;;2.07;;
16524;SDS011;8375;33.594;-117.718;2024-03-08T13:55:18;4.70;;;2.00;;
16524;SDS011;8375;33.594;-117.718;2024-03-08T13:57:47;4.53;;;1.60;;
16524;SDS011;8375;33.594;-117.718;2024-03-08T14:00:17;5.20;;;1.63;;
16524;SDS011;8375;33.594;-117.718;2024-03-08T14:02:48;4.10;;;2.10;;
16524;SDS011;8375;33.594;-117.718;2024-03-08T14:05:17;4.67;;;1.90;;
16524;SDS011;8375;33.594;-117.718;2024-03-08T14:07:45;3.70;;;1.63;;
16524;SDS011;8375;33.594;-117.718;2024-03-08T14:10:15;3.77;;;1.63;;
16524;SDS011;8375;33.594;-117.718;2024-03-08T14:12:47;6.30;;;2.20;;
16524;SDS011;8375;33.594;-117.718;2024-03-08T14:15:16;3.57;;;1.93;;
16524;SDS011;8375;33.594;-117.718;2024-03-08T14:17:44;5.90;;;1.90;;
16524;SDS011;8375;33.594;-117.718;2024-03-08T14:20:19;4.27;;;2.20;;
16524;SDS011;8375;33.594;-117.718;2024-03-08T14:22:51;6.37;;;2.10;;
16524;SDS011;8375;33.594;-117.718;2024-03-08T14:25:22;5.80;;;2.30;;
16524;SDS011;8375;33.594;-117.718;2024-03-08T14:27:52;4.07;;;1.90;;
16524;SDS011;8375;33.594;-117.718;2024-03-08T14:30:24;4.23;;;2.00;;
16524;SDS011;8375;33.594;-117.718;2024-03-08T14:33:03;4.60;;;2.23;;
16524;SDS011;8375;33.594;-117.718;2024-03-08T14:35:34;3.03;;;1.70;;
16524;SDS011;8375;33.594;-117.718;2024-03-08T14:38:03;4.07;;;1.80;;
16524;SDS011;8375;33.594;-117.718;2024-03-08T14:40:34;3.70;;;1.73;;
16524;SDS011;8375;33.594;-117.718;2024-03-08T14:43:04;8.47;;;1.90;;
16524;SDS011;8375;33.594;-117.718;2024-03-08T14:45:33;3.50;;;1.57;;
16524;SDS011;8375;33.594;-117.718;2024-03-08T14:48:02;5.43;;;1.87;;
16524;SDS011;8375;33.594;-117.718;2024-03-08T14:50:32;2.10;;;1.50;;
16524;SDS011;8375;33.594;-117.718;2024-03-08T14:53:02;5.60;;;1.63;;
16524;SDS011;8375;33.594;-117.718;2024-03-08T14:55:32;5.30;;;1.93;;
16524;SDS011;8375;33.594;-117.718;2024-03-08T14:58:01;4.73;;;2.43;;
16524;SDS011;8375;33.594;-117.718;2024-03-08T15:00:31;5.97;;;1.80;;
16524;SDS011;8375;33.594;-117.718;2024-03-08T15:03:00;3.47;;;1.40;;
16524;SDS011;8375;33.594;-117.718;2024-03-08T15:05:32;4.90;;;1.90;;
16524;SDS011;8375;33.594;-117.718;2024-03-08T15:08:03;7.47;;;2.20;;
16524;SDS011;8375;33.594;-117.718;2024-03-08T15:10:35;4.87;;;2.20;;
16524;SDS011;8375;33.594;-117.718;2024-03-08T15:13:05;3.93;;;2.10;;
16524;SDS011;8375;33.594;-117.718;2024-03-08T15:15:42;4.13;;;2.10;;
16524;SDS011;8375;33.594;-117.718;2024-03-08T15:18:12;3.40;;;2.30;;
16524;SDS011;8375;33.594;-117.718;2024-03-08T15:20:41;5.10;;;2.20;;
16524;SDS011;8375;33.594;-117.718;2024-03-08T15:23:15;7.27;;;2.27;;
16524;SDS011;8375;33.594;-117.718;2024-03-08T15:25:43;7.17;;;2.53;;
16524;SDS011;8375;33.594;-117.718;2024-03-08T15:28:14;4.00;;;2.37;;
16524;SDS011;8375;33.594;-117.718;2024-03-08T15:30:47;5.93;;;2.20;;
16524;SDS011;8375;33.594;-117.718;2024-03-08T15:33:20;6.00;;;2.60;;
16524;SDS011;8375;33.594;-117.718;2024-03-08T15:35:52;4.57;;;2.13;;
16524;SDS011;8375;33.594;-117.718;2024-03-08T15:38:26;3.33;;;2.23;;
16524;SDS011;8375;33.594;-117.718;2024-03-08T15:40:55;8.17;;;2.73;;
16524;SDS011;8375;33.594;-117.718;2024-03-08T15:43:23;5.87;;;2.20;;
16524;SDS011;8375;33.594;-117.718;2024-03-08T15:45:54;4.50;;;2.30;;
16524;SDS011;8375;33.594;-117.718;2024-03-08T15:48:24;5.10;;;2.50;;
16524;SDS011;8375;33.594;-117.718;2024-03-08T15:50:52;7.20;;;2.33;;
16524;SDS011;8375;33.594;-117.718;2024-03-08T15:53:21;5.63;;;2.40;;
16524;SDS011;8375;33.594;-117.718;2024-03-08T15:55:50;6.33;;;2.33;;
16524;SDS011;8375;33.594;-117.718;2024-03-08T15:58:18;6.37;;;2.13;;
16524;SDS011;8375;33.594;-117.718;2024-03-08T16:00:47;6.27;;;2.40;;
16524;SDS011;8375;33.594;-117.718;2024-03-08T16:03:20;4.60;;;2.23;;
16524;SDS011;8375;33.594;-117.718;2024-03-08T16:05:48;4.93;;;2.43;;
16524;SDS011;8375;33.594;-117.718;2024-03-08T16:08:17;7.77;;;2.20;;
16524;SDS011;8375;33.594;-117.718;2024-03-08T16:10:48;8.63;;;3.07;;
16524;SDS011;8375;33.594;-117.718;2024-03-08T16:13:22;5.77;;;1.97;;
16524;SDS011;8375;33.594;-117.718;2024-03-08T16:15:51;5.77;;;2.37;;
16524;SDS011;8375;33.594;-117.718;2024-03-08T16:18:22;6.50;;;2.23;;
16524;SDS011;8375;33.594;-117.718;2024-03-08T16:20:52;3.40;;;2.17;;
16524;SDS011;8375;33.594;-117.718;2024-03-08T16:23:24;4.10;;;2.10;;
16524;SDS011;8375;33.594;-117.718;2024-03-08T16:25:53;7.23;;;2.30;;
16524;SDS011;8375;33.594;-117.718;2024-03-08T16:28:22;4.40;;;1.83;;
16524;SDS011;8375;33.594;-117.718;2024-03-08T16:30:53;5.67;;;1.83;;
16524;SDS011;8375;33.594;-117.718;2024-03-08T16:33:25;6.07;;;2.20;;
16524;SDS011;8375;33.594;-117.718;2024-03-08T16:35:54;6.53;;;1.80;;
16524;SDS011;8375;33.594;-117.718;2024-03-08T16:38:23;10.53;;;2.37;;
16524;SDS011;8375;33.594;-117.718;2024-03-08T16:40:51;6.37;;;1.77;;
16524;SDS011;8375;33.594;-117.718;2024-03-08T16:43:20;6.83;;;1.90;;
16524;SDS011;8375;33.594;-117.718;2024-03-08T16:45:49;8.20;;;1.75;;
16524;SDS011;8375;33.594;-117.718;2024-03-08T16:48:19;7.28;;;1.80;;
16524;SDS011;8375;33.594;-117.718;2024-03-08T16:50:50;6.60;;;2.10;;